createdAt,value
2019-03-17T00:00:25.197Z,15.32
2019-03-17T00:02:53.757Z,14.83
2019-03-17T00:05:22.309Z,22.62
2019-03-17T00:07:50.853Z,16.10
2019-03-17T00:10:19.385Z,13.85
2019-03-17T00:12:47.909Z,15.93
2019-03-17T00:15:16.493Z,17.05
2019-03-17T00:17:45.078Z,14.58
2019-03-17T00:20:13.942Z,17.37
2019-03-17T00:22:43.361Z,18.17
2019-03-17T00:25:12.038Z,21.50
2019-03-17T00:27:40.937Z,19.57
2019-03-17T00:30:09.642Z,24.30
2019-03-17T00:32:38.269Z,21.02
2019-03-17T00:35:07.067Z,23.05
2019-03-17T00:37:35.929Z,20.77
2019-03-17T00:40:04.987Z,17.12
2019-03-17T00:42:33.585Z,18.77
2019-03-17T00:45:02.119Z,18.35
2019-03-17T00:47:30.710Z,19.75
2019-03-17T00:49:59.315Z,17.10
2019-03-17T00:52:28.176Z,20.52
2019-03-17T00:54:57.277Z,26.65
2019-03-17T00:57:26.128Z,18.05
2019-03-17T00:59:54.712Z,17.25
2019-03-17T01:02:23.441Z,16.37
2019-03-17T01:04:56.344Z,14.98
2019-03-17T01:07:20.572Z,21.05
2019-03-17T01:09:49.377Z,18.82
2019-03-17T01:12:18.601Z,15.83
2019-03-17T01:14:47.269Z,16.73
2019-03-17T01:17:16.189Z,19.80
2019-03-17T01:19:45.000Z,15.40
2019-03-17T01:22:13.775Z,21.48
2019-03-17T01:24:42.705Z,14.43
2019-03-17T01:27:12.008Z,17.57
2019-03-17T01:29:40.538Z,15.10
2019-03-17T01:32:09.352Z,17.73
2019-03-17T01:34:37.832Z,16.15
2019-03-17T01:37:06.352Z,16.57
2019-03-17T01:39:34.914Z,16.48
2019-03-17T01:42:03.508Z,18.30
2019-03-17T01:44:32.076Z,14.45
2019-03-17T01:47:00.860Z,19.10
2019-03-17T01:49:29.340Z,20.00
2019-03-17T01:51:57.884Z,14.63
2019-03-17T01:54:26.383Z,19.07
2019-03-17T01:56:54.900Z,15.78
2019-03-17T01:59:23.388Z,13.58
2019-03-17T02:01:51.888Z,17.95
2019-03-17T02:04:20.697Z,14.60
2019-03-17T02:06:49.192Z,12.78
2019-03-17T02:09:18.056Z,11.03
2019-03-17T02:11:46.857Z,16.62
2019-03-17T02:14:15.340Z,14.65
2019-03-17T02:16:43.812Z,16.12
2019-03-17T02:19:12.622Z,14.43
2019-03-17T02:21:41.368Z,16.05
2019-03-17T02:24:09.848Z,12.63
2019-03-17T02:26:38.361Z,17.42
2019-03-17T02:29:06.840Z,21.62
2019-03-17T02:31:35.582Z,18.85
2019-03-17T02:34:04.914Z,26.10
2019-03-17T02:36:33.720Z,18.60
2019-03-17T02:39:02.293Z,19.77
2019-03-17T02:41:31.580Z,16.40
2019-03-17T02:44:00.109Z,17.57
2019-03-17T02:46:28.873Z,13.15
2019-03-17T02:48:57.423Z,15.08
2019-03-17T02:51:27.384Z,13.78
2019-03-17T02:53:55.869Z,12.90
2019-03-17T02:56:24.436Z,15.30
2019-03-17T02:58:53.018Z,14.28
2019-03-17T03:01:21.528Z,11.38
2019-03-17T03:03:50.322Z,12.58
2019-03-17T03:06:18.836Z,11.37
2019-03-17T03:08:47.296Z,11.68
2019-03-17T03:11:15.809Z,12.82
2019-03-17T03:13:44.354Z,10.40
2019-03-17T03:16:13.165Z,12.68
2019-03-17T03:18:42.327Z,10.13
2019-03-17T03:21:10.827Z,13.80
2019-03-17T03:23:39.320Z,12.98
2019-03-17T03:26:08.156Z,12.90
2019-03-17T03:28:36.625Z,10.68
2019-03-17T03:31:05.165Z,15.23
2019-03-17T03:33:33.996Z,13.45
2019-03-17T03:36:10.714Z,16.77
2019-03-17T03:38:31.152Z,16.17
2019-03-17T03:40:59.652Z,15.83
2019-03-17T03:43:28.212Z,18.02
2019-03-17T03:45:57.318Z,14.68
2019-03-17T03:48:25.979Z,18.70
2019-03-17T03:50:54.649Z,17.50
2019-03-17T03:53:23.127Z,18.65
2019-03-17T03:55:51.908Z,19.75
2019-03-17T03:58:20.423Z,19.48
2019-03-17T04:00:48.954Z,19.50
2019-03-17T04:03:17.499Z,18.70
2019-03-17T04:05:46.025Z,18.92
2019-03-17T04:08:15.343Z,19.20
2019-03-17T04:10:43.900Z,18.80
2019-03-17T04:13:12.948Z,18.62
2019-03-17T04:15:41.511Z,19.27
2019-03-17T04:18:10.046Z,20.43
2019-03-17T04:20:38.694Z,20.32
2019-03-17T04:23:07.270Z,19.10
2019-03-17T04:25:35.847Z,19.23
2019-03-17T04:28:05.028Z,20.90
2019-03-17T04:30:33.823Z,21.35
2019-03-17T04:33:02.641Z,20.25
2019-03-17T04:35:31.448Z,21.42
2019-03-17T04:38:00.239Z,19.50
2019-03-17T04:40:28.765Z,22.27
2019-03-17T04:42:57.323Z,23.15
2019-03-17T04:45:25.804Z,20.75
2019-03-17T04:47:54.276Z,23.55
2019-03-17T04:50:23.241Z,20.73
2019-03-17T04:52:51.743Z,24.23
2019-03-17T04:55:20.519Z,21.82
2019-03-17T04:57:49.038Z,23.92
2019-03-17T05:00:18.775Z,24.40
2019-03-17T05:02:47.284Z,21.93
2019-03-17T05:05:15.807Z,22.67
2019-03-17T05:07:44.611Z,22.93
2019-03-17T05:10:13.159Z,23.35
2019-03-17T05:12:42.290Z,22.93
2019-03-17T05:15:11.160Z,24.37
2019-03-17T05:17:39.703Z,22.82
2019-03-17T05:20:08.522Z,25.65
2019-03-17T05:22:37.067Z,26.12
2019-03-17T05:25:05.743Z,24.23
2019-03-17T05:27:34.308Z,26.02
2019-03-17T05:30:02.793Z,28.45
2019-03-17T05:32:31.310Z,32.03
2019-03-17T05:35:00.346Z,25.72
2019-03-17T05:37:29.067Z,25.75
2019-03-17T05:39:57.623Z,30.27
2019-03-17T05:42:26.118Z,29.70
2019-03-17T05:44:54.643Z,28.30
2019-03-17T05:47:23.514Z,28.87
2019-03-17T05:49:52.062Z,26.00
2019-03-17T05:52:20.902Z,28.35
2019-03-17T05:54:49.423Z,26.77
2019-03-17T05:57:18.033Z,27.58
2019-03-17T05:59:46.802Z,29.40
2019-03-17T06:02:15.775Z,30.15
2019-03-17T06:04:44.288Z,29.18
2019-03-17T06:07:18.544Z,26.45
2019-03-17T06:09:41.490Z,28.50
2019-03-17T06:12:10.030Z,29.50
2019-03-17T06:14:38.582Z,29.20
2019-03-17T06:17:07.098Z,31.07
2019-03-17T06:19:36.198Z,26.65
2019-03-17T06:22:05.294Z,31.75
2019-03-17T06:24:33.846Z,29.85
2019-03-17T06:27:02.614Z,26.15
2019-03-17T06:29:31.382Z,28.92
2019-03-17T06:31:59.878Z,29.07
2019-03-17T06:34:28.642Z,29.07
2019-03-17T06:36:57.206Z,28.02
2019-03-17T06:39:25.832Z,29.10
2019-03-17T06:41:55.150Z,24.40
2019-03-17T06:44:24.554Z,27.73
2019-03-17T06:46:53.038Z,23.85
2019-03-17T06:49:21.573Z,27.70
2019-03-17T06:51:50.078Z,25.80
2019-03-17T06:54:18.851Z,25.15
2019-03-17T06:56:47.394Z,26.17
2019-03-17T06:59:17.619Z,23.07
2019-03-17T07:01:44.631Z,24.67
2019-03-17T07:04:13.129Z,22.67
2019-03-17T07:06:42.189Z,26.35
2019-03-17T07:09:11.326Z,24.37
2019-03-17T07:11:40.159Z,25.05
2019-03-17T07:14:09.276Z,24.87
2019-03-17T07:16:37.735Z,26.55
2019-03-17T07:19:06.333Z,24.05
2019-03-17T07:21:34.981Z,22.98
2019-03-17T07:24:03.584Z,25.48
2019-03-17T07:26:32.429Z,24.00
2019-03-17T07:29:01.019Z,23.05
2019-03-17T07:31:29.617Z,21.10
2019-03-17T07:33:58.446Z,21.62
2019-03-17T07:36:27.254Z,21.62
2019-03-17T07:38:55.809Z,21.60
2019-03-17T07:41:24.413Z,20.68
2019-03-17T07:43:53.330Z,21.15
2019-03-17T07:46:21.970Z,20.35
2019-03-17T07:48:50.761Z,23.22
2019-03-17T07:51:19.310Z,18.87
2019-03-17T07:53:47.897Z,21.30
2019-03-17T07:56:16.697Z,21.25
2019-03-17T07:58:45.237Z,18.77
2019-03-17T08:01:13.789Z,20.27
2019-03-17T08:03:42.585Z,18.95
2019-03-17T08:06:11.102Z,19.85
2019-03-17T08:08:40.080Z,18.73
2019-03-17T08:11:08.570Z,19.37
2019-03-17T08:13:37.353Z,16.15
2019-03-17T08:16:05.942Z,17.35
2019-03-17T08:18:34.485Z,14.98
2019-03-17T08:21:03.115Z,14.70
2019-03-17T08:23:31.681Z,14.23
2019-03-17T08:26:00.173Z,13.85
2019-03-17T08:28:28.853Z,16.45
2019-03-17T08:30:57.418Z,15.50
2019-03-17T08:33:26.057Z,16.67
2019-03-17T08:35:54.601Z,14.90
2019-03-17T08:38:23.134Z,13.48
2019-03-17T08:40:51.810Z,15.58
2019-03-17T08:43:20.317Z,13.62
2019-03-17T08:45:48.857Z,15.75
2019-03-17T08:48:17.923Z,16.10
2019-03-17T08:50:46.868Z,20.23
2019-03-17T08:53:15.447Z,17.42
2019-03-17T08:55:44.069Z,15.08
2019-03-17T08:58:12.705Z,17.32
2019-03-17T09:00:41.256Z,13.35
2019-03-17T09:03:09.917Z,14.50
2019-03-17T09:05:38.661Z,13.10
2019-03-17T09:08:08.545Z,16.23
2019-03-17T09:10:37.105Z,17.37
2019-03-17T09:13:05.678Z,16.30
2019-03-17T09:15:34.207Z,16.30
2019-03-17T09:18:02.775Z,15.80
2019-03-17T09:20:31.300Z,18.60
2019-03-17T09:22:59.844Z,17.20
2019-03-17T09:25:28.323Z,18.92
2019-03-17T09:27:57.175Z,16.65
2019-03-17T09:30:25.700Z,11.93
2019-03-17T09:32:54.635Z,9.03
2019-03-17T09:35:23.145Z,10.80
2019-03-17T09:37:51.691Z,10.98
2019-03-17T09:40:20.203Z,9.85
2019-03-17T09:42:49.543Z,10.95
2019-03-17T09:45:18.049Z,11.30
2019-03-17T09:47:46.623Z,9.80
2019-03-17T09:50:15.223Z,17.53
2019-03-17T09:52:43.763Z,10.72
2019-03-17T09:55:13.203Z,13.40
2019-03-17T09:57:42.201Z,13.32
2019-03-17T10:00:12.003Z,10.58
2019-03-17T10:02:40.592Z,13.05
2019-03-17T10:05:09.741Z,14.33
2019-03-17T10:07:38.345Z,11.22
2019-03-17T10:10:07.985Z,12.73
2019-03-17T10:12:36.709Z,10.23
2019-03-17T10:15:06.398Z,9.85
2019-03-17T10:17:34.969Z,12.25
2019-03-17T10:20:03.694Z,11.57
2019-03-17T10:22:32.553Z,13.28
2019-03-17T10:25:01.042Z,11.97
2019-03-17T10:27:29.598Z,10.15
2019-03-17T10:29:58.079Z,10.03
2019-03-17T10:32:26.659Z,12.68
2019-03-17T10:34:55.341Z,9.68
2019-03-17T10:37:23.971Z,9.18
2019-03-17T10:39:52.445Z,11.83
2019-03-17T10:42:20.970Z,9.33
2019-03-17T10:44:50.304Z,10.43
2019-03-17T10:47:18.828Z,8.13
2019-03-17T10:49:47.641Z,13.32
2019-03-17T10:52:16.457Z,8.30
2019-03-17T10:54:44.951Z,8.80
2019-03-17T10:57:13.407Z,7.33
2019-03-17T10:59:41.902Z,11.60
2019-03-17T11:02:10.396Z,9.13
2019-03-17T11:04:38.918Z,10.98
2019-03-17T11:07:07.456Z,7.15
2019-03-17T11:09:35.976Z,8.50
2019-03-17T11:12:05.121Z,9.68
2019-03-17T11:14:33.613Z,7.72
2019-03-17T11:17:02.133Z,9.83
2019-03-17T11:19:30.605Z,10.45
2019-03-17T11:21:59.073Z,7.87
2019-03-17T11:24:27.921Z,9.40
2019-03-17T11:26:56.385Z,6.85
2019-03-17T11:29:25.066Z,8.10
2019-03-17T11:31:53.570Z,6.28
2019-03-17T11:34:22.101Z,5.62
2019-03-17T11:36:50.576Z,5.55
2019-03-17T11:39:19.432Z,7.83
2019-03-17T11:41:47.939Z,5.87
2019-03-17T11:44:16.551Z,10.20
2019-03-17T11:46:45.025Z,5.53
2019-03-17T11:49:13.861Z,3.55
2019-03-17T11:51:42.385Z,8.03
2019-03-17T11:54:11.202Z,9.35
2019-03-17T11:56:39.714Z,6.00
2019-03-17T11:59:08.219Z,8.43
2019-03-17T12:01:36.691Z,8.33
2019-03-17T12:04:05.249Z,5.83
2019-03-17T12:06:34.028Z,6.50
2019-03-17T12:09:04.420Z,9.40
2019-03-17T12:11:31.413Z,6.12
2019-03-17T12:14:00.009Z,8.18
2019-03-17T12:16:28.497Z,12.58
2019-03-17T12:18:57.461Z,6.47
2019-03-17T12:21:26.005Z,7.33
2019-03-17T12:23:54.509Z,6.30
2019-03-17T12:26:22.985Z,6.87
2019-03-17T12:28:51.485Z,5.40
2019-03-17T12:31:19.941Z,6.73
2019-03-17T12:33:48.537Z,8.93
2019-03-17T12:36:19.037Z,12.15
2019-03-17T12:38:45.569Z,6.35
2019-03-17T12:41:14.053Z,9.00
2019-03-17T12:43:42.532Z,10.68
2019-03-17T12:46:11.104Z,6.33
2019-03-17T12:48:39.624Z,5.00
2019-03-17T12:51:08.093Z,7.47
2019-03-17T12:53:36.605Z,7.78
2019-03-17T12:56:05.120Z,5.62
2019-03-17T12:58:34.145Z,7.30
2019-03-17T13:01:02.636Z,6.35
2019-03-17T13:03:31.256Z,5.72
2019-03-17T13:05:59.729Z,8.70
2019-03-17T13:08:28.246Z,6.67
2019-03-17T13:10:56.724Z,5.83
2019-03-17T13:13:25.888Z,7.97
2019-03-17T13:15:55.168Z,8.00
2019-03-17T13:18:23.968Z,7.33
2019-03-17T13:20:52.668Z,7.08
2019-03-17T13:23:21.403Z,5.92
2019-03-17T13:25:49.932Z,7.80
2019-03-17T13:28:22.300Z,7.33
2019-03-17T13:30:50.818Z,7.10
2019-03-17T13:33:19.348Z,7.35
2019-03-17T13:35:47.960Z,8.63
2019-03-17T13:38:16.853Z,6.85
2019-03-17T13:40:45.396Z,8.80
2019-03-17T13:43:13.912Z,7.97
2019-03-17T13:45:42.789Z,8.95
2019-03-17T13:48:11.292Z,8.20
2019-03-17T13:50:40.348Z,10.80
2019-03-17T13:53:09.213Z,7.17
2019-03-17T13:55:37.780Z,7.80
2019-03-17T13:58:06.384Z,8.83
2019-03-17T14:00:35.091Z,7.87
2019-03-17T14:03:05.024Z,8.18
2019-03-17T14:05:33.575Z,9.80
2019-03-17T14:08:02.095Z,11.30
2019-03-17T14:10:40.514Z,8.35
2019-03-17T14:12:59.224Z,9.25
2019-03-17T14:15:27.731Z,8.60
2019-03-17T14:17:56.772Z,8.25
2019-03-17T14:20:25.356Z,7.35
2019-03-17T14:22:53.859Z,9.10
2019-03-17T14:25:24.385Z,11.33
2019-03-17T14:27:53.226Z,9.93
2019-03-17T14:30:21.747Z,6.12
2019-03-17T14:32:50.262Z,6.37
2019-03-17T14:35:21.347Z,5.60
2019-03-17T14:37:47.403Z,6.40
2019-03-17T14:40:16.032Z,6.37
2019-03-17T14:42:45.214Z,6.08
2019-03-17T14:45:14.440Z,7.87
2019-03-17T14:47:43.631Z,6.53
2019-03-17T14:50:14.739Z,5.80
2019-03-17T14:52:43.359Z,6.85
2019-03-17T14:55:11.964Z,6.42
2019-03-17T14:57:40.685Z,5.70
2019-03-17T15:00:12.160Z,6.72
2019-03-17T15:02:40.691Z,7.58
2019-03-17T15:05:09.540Z,7.28
2019-03-17T15:07:38.263Z,6.78
2019-03-17T15:10:08.839Z,4.33
2019-03-17T15:12:37.584Z,6.17
2019-03-17T15:15:07.339Z,6.95
2019-03-17T15:17:35.863Z,6.37
2019-03-17T15:20:05.745Z,5.83
2019-03-17T15:22:34.815Z,8.03
2019-03-17T15:25:03.379Z,9.73
2019-03-17T15:27:31.863Z,10.58
2019-03-17T15:30:00.497Z,8.83
2019-03-17T15:32:28.911Z,7.90
2019-03-17T15:34:57.739Z,9.20
2019-03-17T15:37:26.544Z,7.47
2019-03-17T15:39:55.073Z,8.90
2019-03-17T15:42:23.539Z,7.92
2019-03-17T15:44:52.315Z,9.13
2019-03-17T15:47:20.852Z,11.97
2019-03-17T15:49:49.615Z,9.30
2019-03-17T15:52:18.347Z,9.03
2019-03-17T15:54:47.060Z,10.45
2019-03-17T15:57:15.735Z,10.13
2019-03-17T15:59:44.591Z,9.70
2019-03-17T16:02:13.435Z,12.47
2019-03-17T16:04:41.928Z,10.13
2019-03-17T16:07:10.455Z,6.17
2019-03-17T16:09:39.203Z,13.43
2019-03-17T16:12:07.718Z,7.47
2019-03-17T16:14:36.170Z,11.57
2019-03-17T16:17:04.934Z,10.68
2019-03-17T16:19:34.002Z,13.40
2019-03-17T16:22:02.506Z,8.53
2019-03-17T16:24:31.362Z,6.03
2019-03-17T16:27:00.558Z,7.55
2019-03-17T16:29:29.066Z,7.80
2019-03-17T16:31:57.522Z,14.70
2019-03-17T16:34:26.062Z,9.83
2019-03-17T16:36:54.886Z,9.30
2019-03-17T16:39:23.363Z,11.63
2019-03-17T16:41:52.301Z,8.65
2019-03-17T16:44:20.863Z,7.13
2019-03-17T16:46:49.702Z,7.47
2019-03-17T16:49:18.222Z,5.58
2019-03-17T16:51:48.480Z,7.87
2019-03-17T16:54:16.940Z,9.30
2019-03-17T16:56:46.844Z,7.12
2019-03-17T16:59:15.334Z,13.98
2019-03-17T17:01:43.869Z,12.43
2019-03-17T17:04:12.349Z,9.78
2019-03-17T17:06:41.169Z,7.78
2019-03-17T17:09:09.693Z,12.50
2019-03-17T17:11:38.253Z,11.60
2019-03-17T17:14:07.357Z,8.38
2019-03-17T17:16:36.330Z,9.08
2019-03-17T17:19:04.985Z,10.10
2019-03-17T17:21:33.461Z,7.78
2019-03-17T17:24:01.961Z,9.58
2019-03-17T17:26:37.401Z,5.62
2019-03-17T17:28:59.296Z,9.20
2019-03-17T17:31:27.824Z,6.78
2019-03-17T17:33:56.671Z,8.20
2019-03-17T17:36:25.337Z,7.60
2019-03-17T17:38:54.130Z,12.63
2019-03-17T17:41:22.956Z,15.55
2019-03-17T17:43:52.463Z,12.75
2019-03-17T17:46:21.114Z,15.65
2019-03-17T17:48:49.855Z,15.10
2019-03-17T17:51:18.345Z,15.45
2019-03-17T17:53:46.847Z,14.05
2019-03-17T17:56:15.423Z,18.77
2019-03-17T17:58:44.228Z,18.73
2019-03-17T18:01:12.758Z,14.60
2019-03-17T18:03:51.210Z,20.52
2019-03-17T18:06:09.855Z,16.82
2019-03-17T18:08:38.319Z,15.98
2019-03-17T18:11:06.971Z,22.58
2019-03-17T18:13:35.548Z,22.32
2019-03-17T18:16:05.076Z,29.85
2019-03-17T18:18:35.511Z,23.80
2019-03-17T18:21:05.022Z,5.98
2019-03-17T18:23:33.561Z,4.65
2019-03-17T18:26:02.101Z,4.00
2019-03-17T18:28:30.713Z,1.87
2019-03-17T18:30:59.225Z,3.75
2019-03-17T18:33:27.857Z,2.27
2019-03-17T18:35:56.349Z,2.92
2019-03-17T18:38:25.141Z,4.28
2019-03-17T18:40:53.725Z,2.65
2019-03-17T18:43:22.449Z,6.12
2019-03-17T18:45:50.926Z,5.72
2019-03-17T18:48:19.429Z,4.03
2019-03-17T18:50:48.456Z,2.70
2019-03-17T18:53:16.901Z,5.03
2019-03-17T18:55:45.328Z,3.22
2019-03-17T18:58:14.656Z,3.40
2019-03-17T19:00:43.169Z,4.08
2019-03-17T19:03:11.796Z,3.72
2019-03-17T19:05:40.261Z,7.55
2019-03-17T19:08:08.748Z,6.47
2019-03-17T19:10:40.753Z,7.75
2019-03-17T19:13:09.232Z,5.97
2019-03-17T19:15:38.288Z,5.75
2019-03-17T19:18:06.839Z,4.55
2019-03-17T19:20:35.359Z,6.17
2019-03-17T19:23:04.652Z,4.25
2019-03-17T19:25:33.243Z,4.17
2019-03-17T19:28:02.655Z,4.20
2019-03-17T19:30:31.249Z,3.50
2019-03-17T19:32:59.849Z,2.98
2019-03-17T19:35:28.417Z,5.80
2019-03-17T19:37:57.109Z,2.83
2019-03-17T19:40:25.663Z,3.67
2019-03-17T19:42:59.316Z,4.72
2019-03-17T19:45:22.887Z,5.60
2019-03-17T19:47:51.465Z,3.90
2019-03-17T19:50:21.619Z,4.00
2019-03-17T19:52:50.958Z,5.83
2019-03-17T19:55:19.554Z,4.65
2019-03-17T19:57:48.158Z,4.30
2019-03-17T20:00:16.842Z,3.90
2019-03-17T20:02:47.595Z,3.20
2019-03-17T20:05:14.101Z,4.92
2019-03-17T20:07:42.726Z,5.35
2019-03-17T20:10:13.203Z,6.37
2019-03-17T20:12:42.166Z,7.05
2019-03-17T20:15:10.855Z,7.20
2019-03-17T20:17:39.542Z,4.15
2019-03-17T20:20:09.053Z,6.70
2019-03-17T20:22:37.734Z,6.37
2019-03-17T20:25:06.522Z,5.70
2019-03-17T20:27:35.227Z,10.05
2019-03-17T20:30:04.153Z,9.58
2019-03-17T20:32:32.793Z,9.55
2019-03-17T20:35:01.442Z,13.00
2019-03-17T20:37:29.953Z,9.90
2019-03-17T20:39:58.465Z,7.10
2019-03-17T20:42:27.181Z,7.05
2019-03-17T20:44:55.712Z,7.55
2019-03-17T20:47:24.454Z,11.68
2019-03-17T20:49:53.176Z,9.90
2019-03-17T20:52:22.022Z,13.25
2019-03-17T20:54:50.897Z,11.10
2019-03-17T20:57:20.248Z,9.33
2019-03-17T20:59:48.836Z,11.12
2019-03-17T21:02:17.512Z,10.72
2019-03-17T21:04:46.055Z,12.45
2019-03-17T21:07:14.813Z,10.90
2019-03-17T21:09:43.385Z,11.48
2019-03-17T21:12:12.031Z,8.68
2019-03-17T21:14:40.539Z,8.93
2019-03-17T21:17:09.304Z,8.08
2019-03-17T21:19:37.882Z,8.03
2019-03-17T21:22:06.508Z,7.37
2019-03-17T21:24:35.465Z,13.43
2019-03-17T21:27:04.958Z,14.45
2019-03-17T21:29:33.544Z,19.55
2019-03-17T21:32:02.120Z,17.67
2019-03-17T21:34:30.657Z,13.58
2019-03-17T21:36:59.423Z,13.70
2019-03-17T21:39:28.061Z,10.68
2019-03-17T21:41:56.596Z,12.18
2019-03-17T21:44:25.304Z,15.98
2019-03-17T21:46:53.868Z,11.95
2019-03-17T21:49:22.428Z,6.55
2019-03-17T21:51:50.968Z,7.78
2019-03-17T21:54:19.508Z,6.60
2019-03-17T21:56:48.036Z,7.75
2019-03-17T21:59:16.568Z,6.00
2019-03-17T22:01:45.386Z,5.80
2019-03-17T22:04:14.156Z,6.92
2019-03-17T22:06:42.724Z,6.53
2019-03-17T22:09:11.220Z,6.15
2019-03-17T22:11:39.748Z,5.87
2019-03-17T22:14:12.323Z,9.48
2019-03-17T22:16:37.652Z,5.03
2019-03-17T22:19:06.140Z,7.92
2019-03-17T22:21:35.103Z,8.63
2019-03-17T22:24:03.884Z,8.88
2019-03-17T22:26:32.929Z,6.97
2019-03-17T22:29:01.474Z,6.25
2019-03-17T22:31:30.043Z,9.68
2019-03-17T22:33:59.229Z,6.47
2019-03-17T22:36:27.779Z,8.05
2019-03-17T22:38:56.589Z,11.93
2019-03-17T22:41:25.396Z,25.50
2019-03-17T22:43:54.191Z,21.68
2019-03-17T22:46:23.072Z,22.02
2019-03-17T22:48:51.607Z,14.18
2019-03-17T22:51:20.139Z,10.55
2019-03-17T22:53:48.640Z,11.15
2019-03-17T22:56:17.205Z,12.47
2019-03-17T22:58:45.720Z,8.05
2019-03-17T23:01:14.467Z,7.97
2019-03-17T23:03:43.307Z,8.85
2019-03-17T23:06:12.482Z,8.40
2019-03-17T23:08:41.127Z,4.87
2019-03-17T23:11:09.951Z,4.33
2019-03-17T23:13:38.571Z,7.05
2019-03-17T23:16:07.571Z,4.70
2019-03-17T23:18:36.511Z,5.42
2019-03-17T23:21:05.189Z,3.92
2019-03-17T23:23:33.843Z,6.42
2019-03-17T23:26:02.794Z,3.70
2019-03-17T23:28:31.511Z,4.50
2019-03-17T23:31:00.183Z,3.55
2019-03-17T23:33:28.865Z,4.75
2019-03-17T23:35:57.536Z,3.62
2019-03-17T23:38:26.299Z,4.28
2019-03-17T23:40:54.987Z,5.25
2019-03-17T23:43:23.759Z,5.17
2019-03-17T23:45:52.446Z,5.62
2019-03-17T23:48:21.683Z,4.35
2019-03-17T23:50:51.099Z,4.17
2019-03-17T23:53:19.859Z,4.72
2019-03-17T23:55:48.579Z,3.42
2019-03-17T23:58:17.320Z,3.67
